sensor_id;sensor_type;location;lat;lon;timestamp;temperature;humidity
17815;DHT22;9031;50.974;11.330;2022-07-01T00:01:27;22.30;99.90
17815;DHT22;9031;50.974;11.330;2022-07-01T00:03:53;22.40;99.90
17815;DHT22;9031;50.974;11.330;2022-07-01T00:06:18;22.50;99.90
17815;DHT22;9031;50.974;11.330;2022-07-01T00:08:44;22.50;99.90
17815;DHT22;9031;50.974;11.330;2022-07-01T00:11:11;22.50;99.90
17815;DHT22;9031;50.974;11.330;2022-07-01T00:13:37;22.40;99.90
17815;DHT22;9031;50.974;11.330;2022-07-01T00:16:03;22.40;99.90
17815;DHT22;9031;50.974;11.330;2022-07-01T00:18:29;22.40;99.90
17815;DHT22;9031;50.974;11.330;2022-07-01T00:20:55;22.50;99.90
17815;DHT22;9031;50.974;11.330;2022-07-01T00:23:20;22.50;99.90
17815;DHT22;9031;50.974;11.330;2022-07-01T00:25:46;22.40;99.90
17815;DHT22;9031;50.974;11.330;2022-07-01T00:28:11;22.40;99.90
17815;DHT22;9031;50.974;11.330;2022-07-01T00:30:37;22.30;99.90
17815;DHT22;9031;50.974;11.330;2022-07-01T00:33:03;22.30;99.90
17815;DHT22;9031;50.974;11.330;2022-07-01T00:35:29;22.30;99.90
17815;DHT22;9031;50.974;11.330;2022-07-01T00:37:54;22.30;99.90
17815;DHT22;9031;50.974;11.330;2022-07-01T00:40:20;22.30;99.90
17815;DHT22;9031;50.974;11.330;2022-07-01T00:42:45;22.20;99.90
17815;DHT22;9031;50.974;11.330;2022-07-01T00:45:12;22.30;99.90
17815;DHT22;9031;50.974;11.330;2022-07-01T00:47:38;22.30;99.90
17815;DHT22;9031;50.974;11.330;2022-07-01T00:50:10;22.40;99.90
17815;DHT22;9031;50.974;11.330;2022-07-01T00:52:36;22.30;99.90
17815;DHT22;9031;50.974;11.330;2022-07-01T00:55:07;22.30;99.90
17815;DHT22;9031;50.974;11.330;2022-07-01T00:57:35;22.40;99.90
17815;DHT22;9031;50.974;11.330;2022-07-01T01:02:33;22.50;99.90
17815;DHT22;9031;50.974;11.330;2022-07-01T01:04:59;22.50;99.90
17815;DHT22;9031;50.974;11.330;2022-07-01T01:07:25;22.50;99.90
17815;DHT22;9031;50.974;11.330;2022-07-01T01:09:51;22.50;99.90
17815;DHT22;9031;50.974;11.330;2022-07-01T01:12:16;22.40;99.90
17815;DHT22;9031;50.974;11.330;2022-07-01T01:14:44;22.40;99.90
17815;DHT22;9031;50.974;11.330;2022-07-01T01:17:10;22.40;99.90
17815;DHT22;9031;50.974;11.330;2022-07-01T01:19:36;22.30;99.90
17815;DHT22;9031;50.974;11.330;2022-07-01T01:22:01;22.30;99.90
17815;DHT22;9031;50.974;11.330;2022-07-01T01:24:27;22.10;99.90
17815;DHT22;9031;50.974;11.330;2022-07-01T01:26:53;22.10;99.90
17815;DHT22;9031;50.974;11.330;2022-07-01T01:29:18;22.10;99.90
17815;DHT22;9031;50.974;11.330;2022-07-01T01:31:44;22.00;99.90
17815;DHT22;9031;50.974;11.330;2022-07-01T01:34:09;22.00;99.90
17815;DHT22;9031;50.974;11.330;2022-07-01T01:36:35;22.10;99.90
17815;DHT22;9031;50.974;11.330;2022-07-01T01:39:00;22.10;99.90
17815;DHT22;9031;50.974;11.330;2022-07-01T01:41:44;22.20;99.90
17815;DHT22;9031;50.974;11.330;2022-07-01T01:44:10;22.20;99.90
17815;DHT22;9031;50.974;11.330;2022-07-01T01:46:36;22.10;99.90
17815;DHT22;9031;50.974;11.330;2022-07-01T01:49:03;22.00;99.90
17815;DHT22;9031;50.974;11.330;2022-07-01T01:51:29;21.90;99.90
17815;DHT22;9031;50.974;11.330;2022-07-01T01:53:55;22.00;99.90
17815;DHT22;9031;50.974;11.330;2022-07-01T01:56:22;21.90;99.90
17815;DHT22;9031;50.974;11.330;2022-07-01T01:58:47;21.80;99.90
17815;DHT22;9031;50.974;11.330;2022-07-01T02:01:13;21.70;99.90
17815;DHT22;9031;50.974;11.330;2022-07-01T02:03:41;21.70;99.90
17815;DHT22;9031;50.974;11.330;2022-07-01T02:06:07;21.70;99.90
17815;DHT22;9031;50.974;11.330;2022-07-01T02:08:35;21.70;99.90
17815;DHT22;9031;50.974;11.330;2022-07-01T02:11:00;21.50;99.90
17815;DHT22;9031;50.974;11.330;2022-07-01T02:13:26;21.50;99.90
17815;DHT22;9031;50.974;11.330;2022-07-01T02:15:51;21.50;99.90
17815;DHT22;9031;50.974;11.330;2022-07-01T02:18:17;21.40;99.90
17815;DHT22;9031;50.974;11.330;2022-07-01T02:20:43;21.40;99.90
17815;DHT22;9031;50.974;11.330;2022-07-01T02:23:09;21.40;99.90
17815;DHT22;9031;50.974;11.330;2022-07-01T02:25:35;21.30;99.90
17815;DHT22;9031;50.974;11.330;2022-07-01T02:28:01;21.30;99.90
17815;DHT22;9031;50.974;11.330;2022-07-01T02:30:28;21.30;99.90
17815;DHT22;9031;50.974;11.330;2022-07-01T02:32:53;21.30;99.90
17815;DHT22;9031;50.974;11.330;2022-07-01T02:35:19;21.30;99.90
17815;DHT22;9031;50.974;11.330;2022-07-01T02:37:45;21.30;99.90
17815;DHT22;9031;50.974;11.330;2022-07-01T02:40:11;21.30;99.90
17815;DHT22;9031;50.974;11.330;2022-07-01T02:42:38;21.30;99.90
17815;DHT22;9031;50.974;11.330;2022-07-01T02:45:05;21.20;99.90
17815;DHT22;9031;50.974;11.330;2022-07-01T02:47:35;21.10;99.90
17815;DHT22;9031;50.974;11.330;2022-07-01T02:50:05;21.00;99.90
17815;DHT22;9031;50.974;11.330;2022-07-01T02:52:32;21.00;99.90
17815;DHT22;9031;50.974;11.330;2022-07-01T02:55:00;21.00;99.90
17815;DHT22;9031;50.974;11.330;2022-07-01T02:57:25;21.10;99.90
17815;DHT22;9031;50.974;11.330;2022-07-01T02:59:51;21.10;99.90
17815;DHT22;9031;50.974;11.330;2022-07-01T03:02:18;21.00;99.90
17815;DHT22;9031;50.974;11.330;2022-07-01T03:04:44;20.70;99.90
17815;DHT22;9031;50.974;11.330;2022-07-01T03:07:09;20.40;99.90
17815;DHT22;9031;50.974;11.330;2022-07-01T03:09:35;19.70;99.90
17815;DHT22;9031;50.974;11.330;2022-07-01T03:12:01;19.10;99.90
17815;DHT22;9031;50.974;11.330;2022-07-01T03:14:46;18.80;99.90
17815;DHT22;9031;50.974;11.330;2022-07-01T03:17:12;18.70;99.90
17815;DHT22;9031;50.974;11.330;2022-07-01T03:19:37;18.60;99.90
17815;DHT22;9031;50.974;11.330;2022-07-01T03:22:03;18.60;99.90
17815;DHT22;9031;50.974;11.330;2022-07-01T03:24:28;18.60;99.90
17815;DHT22;9031;50.974;11.330;2022-07-01T03:26:54;18.60;99.90
17815;DHT22;9031;50.974;11.330;2022-07-01T03:29:19;18.70;99.90
17815;DHT22;9031;50.974;11.330;2022-07-01T03:31:45;18.70;99.90
17815;DHT22;9031;50.974;11.330;2022-07-01T03:34:10;18.70;99.90
17815;DHT22;9031;50.974;11.330;2022-07-01T03:36:36;18.60;99.90
17815;DHT22;9031;50.974;11.330;2022-07-01T03:39:01;18.60;99.90
17815;DHT22;9031;50.974;11.330;2022-07-01T03:41:28;18.60;99.90
17815;DHT22;9031;50.974;11.330;2022-07-01T03:43:54;18.50;99.90
17815;DHT22;9031;50.974;11.330;2022-07-01T03:46:20;18.50;99.90
17815;DHT22;9031;50.974;11.330;2022-07-01T03:48:45;18.60;99.90
17815;DHT22;9031;50.974;11.330;2022-07-01T03:51:11;18.60;99.90
17815;DHT22;9031;50.974;11.330;2022-07-01T03:53:36;18.60;99.90
17815;DHT22;9031;50.974;11.330;2022-07-01T03:56:20;18.60;99.90
17815;DHT22;9031;50.974;11.330;2022-07-01T03:58:46;18.60;99.90
17815;DHT22;9031;50.974;11.330;2022-07-01T04:01:11;18.50;99.90
17815;DHT22;9031;50.974;11.330;2022-07-01T04:03:37;18.40;99.90
17815;DHT22;9031;50.974;11.330;2022-07-01T04:06:02;18.40;99.90
17815;DHT22;9031;50.974;11.330;2022-07-01T04:08:28;18.50;99.90
17815;DHT22;9031;50.974;11.330;2022-07-01T04:10:54;18.50;99.90
17815;DHT22;9031;50.974;11.330;2022-07-01T04:13:21;18.40;99.90
17815;DHT22;9031;50.974;11.330;2022-07-01T04:15:46;18.40;99.90
17815;DHT22;9031;50.974;11.330;2022-07-01T04:18:12;18.40;99.90
17815;DHT22;9031;50.974;11.330;2022-07-01T04:20:38;18.40;99.90
17815;DHT22;9031;50.974;11.330;2022-07-01T04:23:03;18.50;99.90
17815;DHT22;9031;50.974;11.330;2022-07-01T04:25:29;18.40;99.90
17815;DHT22;9031;50.974;11.330;2022-07-01T04:27:56;18.30;99.90
17815;DHT22;9031;50.974;11.330;2022-07-01T04:30:22;18.30;99.90
17815;DHT22;9031;50.974;11.330;2022-07-01T04:32:48;18.40;99.90
17815;DHT22;9031;50.974;11.330;2022-07-01T04:35:14;18.50;99.90
17815;DHT22;9031;50.974;11.330;2022-07-01T04:37:40;18.50;99.90
17815;DHT22;9031;50.974;11.330;2022-07-01T04:40:06;18.50;99.90
17815;DHT22;9031;50.974;11.330;2022-07-01T04:42:32;18.60;99.90
17815;DHT22;9031;50.974;11.330;2022-07-01T04:44:58;18.70;99.90
17815;DHT22;9031;50.974;11.330;2022-07-01T04:47:23;18.80;99.90
17815;DHT22;9031;50.974;11.330;2022-07-01T04:49:49;18.90;99.90
17815;DHT22;9031;50.974;11.330;2022-07-01T04:52:15;19.10;99.90
17815;DHT22;9031;50.974;11.330;2022-07-01T04:54:41;19.00;99.90
17815;DHT22;9031;50.974;11.330;2022-07-01T04:57:06;18.90;99.90
17815;DHT22;9031;50.974;11.330;2022-07-01T04:59:32;18.90;99.90
17815;DHT22;9031;50.974;11.330;2022-07-01T05:01:58;18.90;99.90
17815;DHT22;9031;50.974;11.330;2022-07-01T05:04:24;19.00;99.90
17815;DHT22;9031;50.974;11.330;2022-07-01T05:06:51;19.00;99.90
17815;DHT22;9031;50.974;11.330;2022-07-01T05:09:17;19.00;99.90
17815;DHT22;9031;50.974;11.330;2022-07-01T05:11:43;19.30;99.90
17815;DHT22;9031;50.974;11.330;2022-07-01T05:14:08;19.20;99.90
17815;DHT22;9031;50.974;11.330;2022-07-01T05:16:35;19.20;99.90
17815;DHT22;9031;50.974;11.330;2022-07-01T05:19:01;19.00;99.90
17815;DHT22;9031;50.974;11.330;2022-07-01T05:21:45;19.00;99.90
17815;DHT22;9031;50.974;11.330;2022-07-01T05:24:25;19.00;99.90
17815;DHT22;9031;50.974;11.330;2022-07-01T05:26:51;19.00;99.90
17815;DHT22;9031;50.974;11.330;2022-07-01T05:29:17;18.80;99.90
17815;DHT22;9031;50.974;11.330;2022-07-01T05:31:42;18.70;99.90
17815;DHT22;9031;50.974;11.330;2022-07-01T05:34:08;18.70;99.90
17815;DHT22;9031;50.974;11.330;2022-07-01T05:36:34;18.70;99.90
17815;DHT22;9031;50.974;11.330;2022-07-01T05:38:59;18.60;99.90
17815;DHT22;9031;50.974;11.330;2022-07-01T05:41:26;18.80;99.90
17815;DHT22;9031;50.974;11.330;2022-07-01T05:43:51;18.70;99.90
17815;DHT22;9031;50.974;11.330;2022-07-01T05:46:17;18.70;99.90
17815;DHT22;9031;50.974;11.330;2022-07-01T05:48:43;18.90;99.90
17815;DHT22;9031;50.974;11.330;2022-07-01T05:51:08;18.90;99.90
17815;DHT22;9031;50.974;11.330;2022-07-01T05:53:34;18.70;99.90
17815;DHT22;9031;50.974;11.330;2022-07-01T05:55:59;18.60;99.90
17815;DHT22;9031;50.974;11.330;2022-07-01T05:58:25;18.60;99.90
17815;DHT22;9031;50.974;11.330;2022-07-01T06:00:50;18.70;99.90
17815;DHT22;9031;50.974;11.330;2022-07-01T06:03:16;18.80;99.90
17815;DHT22;9031;50.974;11.330;2022-07-01T06:05:42;18.60;99.90
17815;DHT22;9031;50.974;11.330;2022-07-01T06:08:08;18.60;99.90
17815;DHT22;9031;50.974;11.330;2022-07-01T06:10:34;18.70;99.90
17815;DHT22;9031;50.974;11.330;2022-07-01T06:13:01;18.70;99.90
17815;DHT22;9031;50.974;11.330;2022-07-01T06:15:27;18.70;99.90
17815;DHT22;9031;50.974;11.330;2022-07-01T06:17:53;18.40;99.90
17815;DHT22;9031;50.974;11.330;2022-07-01T06:20:18;18.40;99.90
17815;DHT22;9031;50.974;11.330;2022-07-01T06:22:44;18.30;99.90
17815;DHT22;9031;50.974;11.330;2022-07-01T06:25:10;18.40;99.90
17815;DHT22;9031;50.974;11.330;2022-07-01T06:27:40;18.50;99.90
17815;DHT22;9031;50.974;11.330;2022-07-01T06:30:06;18.70;99.90
17815;DHT22;9031;50.974;11.330;2022-07-01T06:32:32;18.60;99.90
17815;DHT22;9031;50.974;11.330;2022-07-01T06:34:57;18.70;99.90
17815;DHT22;9031;50.974;11.330;2022-07-01T06:37:23;18.70;99.90
17815;DHT22;9031;50.974;11.330;2022-07-01T06:39:49;18.60;99.90
17815;DHT22;9031;50.974;11.330;2022-07-01T06:42:15;18.40;99.90
17815;DHT22;9031;50.974;11.330;2022-07-01T06:44:41;18.20;99.90
17815;DHT22;9031;50.974;11.330;2022-07-01T06:47:07;18.20;99.90
17815;DHT22;9031;50.974;11.330;2022-07-01T06:49:33;18.20;99.90
17815;DHT22;9031;50.974;11.330;2022-07-01T06:51:58;18.00;99.90
17815;DHT22;9031;50.974;11.330;2022-07-01T06:54:24;18.10;99.90
17815;DHT22;9031;50.974;11.330;2022-07-01T06:56:49;18.00;99.90
17815;DHT22;9031;50.974;11.330;2022-07-01T06:59:15;17.80;99.90
17815;DHT22;9031;50.974;11.330;2022-07-01T07:01:41;17.60;99.90
17815;DHT22;9031;50.974;11.330;2022-07-01T07:04:07;17.50;99.90
17815;DHT22;9031;50.974;11.330;2022-07-01T07:06:33;17.30;99.90
17815;DHT22;9031;50.974;11.330;2022-07-01T07:08:58;17.10;99.90
17815;DHT22;9031;50.974;11.330;2022-07-01T07:11:24;16.90;99.90
17815;DHT22;9031;50.974;11.330;2022-07-01T07:13:50;16.90;99.90
17815;DHT22;9031;50.974;11.330;2022-07-01T07:16:15;16.90;99.90
17815;DHT22;9031;50.974;11.330;2022-07-01T07:18:46;16.80;99.90
17815;DHT22;9031;50.974;11.330;2022-07-01T07:21:12;16.70;99.90
17815;DHT22;9031;50.974;11.330;2022-07-01T07:23:37;16.70;99.90
17815;DHT22;9031;50.974;11.330;2022-07-01T07:26:03;16.90;99.90
17815;DHT22;9031;50.974;11.330;2022-07-01T07:28:29;16.90;99.90
17815;DHT22;9031;50.974;11.330;2022-07-01T07:30:54;16.80;99.90
17815;DHT22;9031;50.974;11.330;2022-07-01T07:33:20;16.80;99.90
17815;DHT22;9031;50.974;11.330;2022-07-01T07:35:45;16.70;99.90
17815;DHT22;9031;50.974;11.330;2022-07-01T07:38:11;16.70;99.90
17815;DHT22;9031;50.974;11.330;2022-07-01T07:40:37;16.80;99.90
17815;DHT22;9031;50.974;11.330;2022-07-01T07:43:02;16.70;99.90
17815;DHT22;9031;50.974;11.330;2022-07-01T07:45:29;16.60;99.90
17815;DHT22;9031;50.974;11.330;2022-07-01T07:47:54;16.50;99.90
17815;DHT22;9031;50.974;11.330;2022-07-01T07:50:21;16.50;99.90
17815;DHT22;9031;50.974;11.330;2022-07-01T07:52:46;16.40;99.90
17815;DHT22;9031;50.974;11.330;2022-07-01T07:55:12;16.40;99.90
17815;DHT22;9031;50.974;11.330;2022-07-01T07:57:39;16.40;99.90
17815;DHT22;9031;50.974;11.330;2022-07-01T08:00:07;16.50;99.90
17815;DHT22;9031;50.974;11.330;2022-07-01T08:02:33;16.40;99.90
17815;DHT22;9031;50.974;11.330;2022-07-01T08:04:59;16.40;99.90
17815;DHT22;9031;50.974;11.330;2022-07-01T08:07:25;16.30;99.90
17815;DHT22;9031;50.974;11.330;2022-07-01T08:09:50;16.10;99.90
17815;DHT22;9031;50.974;11.330;2022-07-01T08:12:16;16.20;99.90
17815;DHT22;9031;50.974;11.330;2022-07-01T08:14:42;16.40;99.90
17815;DHT22;9031;50.974;11.330;2022-07-01T08:17:08;16.50;99.90
17815;DHT22;9031;50.974;11.330;2022-07-01T08:19:34;16.50;99.90
17815;DHT22;9031;50.974;11.330;2022-07-01T08:21:59;16.40;99.90
17815;DHT22;9031;50.974;11.330;2022-07-01T08:24:25;16.30;99.90
17815;DHT22;9031;50.974;11.330;2022-07-01T08:26:51;16.30;99.90
17815;DHT22;9031;50.974;11.330;2022-07-01T08:29:16;16.50;99.90
17815;DHT22;9031;50.974;11.330;2022-07-01T08:31:42;16.40;99.90
17815;DHT22;9031;50.974;11.330;2022-07-01T08:34:08;16.50;99.90
17815;DHT22;9031;50.974;11.330;2022-07-01T08:36:35;16.40;99.90
17815;DHT22;9031;50.974;11.330;2022-07-01T08:39:01;16.40;99.90
17815;DHT22;9031;50.974;11.330;2022-07-01T08:41:27;16.50;99.90
17815;DHT22;9031;50.974;11.330;2022-07-01T08:43:53;16.60;99.90
17815;DHT22;9031;50.974;11.330;2022-07-01T08:46:19;16.70;99.90
17815;DHT22;9031;50.974;11.330;2022-07-01T08:48:46;16.70;99.90
17815;DHT22;9031;50.974;11.330;2022-07-01T08:51:12;17.00;99.90
17815;DHT22;9031;50.974;11.330;2022-07-01T08:53:37;16.90;99.90
17815;DHT22;9031;50.974;11.330;2022-07-01T08:56:03;16.70;99.90
17815;DHT22;9031;50.974;11.330;2022-07-01T08:58:51;16.80;99.90
17815;DHT22;9031;50.974;11.330;2022-07-01T09:01:24;16.70;99.90
17815;DHT22;9031;50.974;11.330;2022-07-01T09:03:52;16.70;99.90
17815;DHT22;9031;50.974;11.330;2022-07-01T09:06:27;16.70;99.90
17815;DHT22;9031;50.974;11.330;2022-07-01T09:08:53;16.70;99.90
17815;DHT22;9031;50.974;11.330;2022-07-01T09:11:20;16.60;99.90
17815;DHT22;9031;50.974;11.330;2022-07-01T09:14:07;16.70;99.90
17815;DHT22;9031;50.974;11.330;2022-07-01T09:16:52;16.60;99.90
17815;DHT22;9031;50.974;11.330;2022-07-01T09:19:20;16.70;99.90
17815;DHT22;9031;50.974;11.330;2022-07-01T09:21:54;16.80;99.90
17815;DHT22;9031;50.974;11.330;2022-07-01T09:24:34;16.80;99.90
17815;DHT22;9031;50.974;11.330;2022-07-01T09:27:08;16.90;99.90
17815;DHT22;9031;50.974;11.330;2022-07-01T09:29:40;17.10;99.90
17815;DHT22;9031;50.974;11.330;2022-07-01T09:32:09;17.20;99.90
17815;DHT22;9031;50.974;11.330;2022-07-01T09:34:44;17.30;99.90
17815;DHT22;9031;50.974;11.330;2022-07-01T09:37:17;17.10;99.90
17815;DHT22;9031;50.974;11.330;2022-07-01T09:39:50;17.20;99.90
17815;DHT22;9031;50.974;11.330;2022-07-01T09:42:17;17.10;99.90
17815;DHT22;9031;50.974;11.330;2022-07-01T09:45:03;17.10;99.90
17815;DHT22;9031;50.974;11.330;2022-07-01T09:47:33;17.20;99.90
17815;DHT22;9031;50.974;11.330;2022-07-01T09:49:59;17.50;99.90
17815;DHT22;9031;50.974;11.330;2022-07-01T09:52:24;17.50;99.90
17815;DHT22;9031;50.974;11.330;2022-07-01T09:54:50;17.60;99.90
17815;DHT22;9031;50.974;11.330;2022-07-01T09:57:17;17.50;99.90
17815;DHT22;9031;50.974;11.330;2022-07-01T09:59:44;17.50;99.90
17815;DHT22;9031;50.974;11.330;2022-07-01T10:02:10;17.40;99.90
17815;DHT22;9031;50.974;11.330;2022-07-01T10:04:49;17.50;99.90
17815;DHT22;9031;50.974;11.330;2022-07-01T10:12:48;17.40;99.90
17815;DHT22;9031;50.974;11.330;2022-07-01T10:15:17;17.50;99.90
17815;DHT22;9031;50.974;11.330;2022-07-01T10:17:45;17.50;99.90
17815;DHT22;9031;50.974;11.330;2022-07-01T10:20:16;17.50;99.90
17815;DHT22;9031;50.974;11.330;2022-07-01T10:22:43;17.50;99.90
17815;DHT22;9031;50.974;11.330;2022-07-01T10:25:41;17.60;99.90
17815;DHT22;9031;50.974;11.330;2022-07-01T10:31:03;18.00;99.90
17815;DHT22;9031;50.974;11.330;2022-07-01T10:33:33;18.30;99.90
17815;DHT22;9031;50.974;11.330;2022-07-01T10:36:15;18.10;99.90
17815;DHT22;9031;50.974;11.330;2022-07-01T10:41:33;18.00;99.90
17815;DHT22;9031;50.974;11.330;2022-07-01T10:44:02;18.30;99.90
17815;DHT22;9031;50.974;11.330;2022-07-01T10:46:52;18.40;99.90
17815;DHT22;9031;50.974;11.330;2022-07-01T10:59:41;18.00;99.90
17815;DHT22;9031;50.974;11.330;2022-07-01T11:02:12;17.90;99.90
17815;DHT22;9031;50.974;11.330;2022-07-01T11:04:39;17.70;99.90
17815;DHT22;9031;50.974;11.330;2022-07-01T11:07:05;17.60;99.90
17815;DHT22;9031;50.974;11.330;2022-07-01T11:09:30;17.30;99.90
17815;DHT22;9031;50.974;11.330;2022-07-01T11:11:57;17.30;99.90
17815;DHT22;9031;50.974;11.330;2022-07-01T11:14:23;17.40;99.90
17815;DHT22;9031;50.974;11.330;2022-07-01T11:16:49;17.40;99.90
17815;DHT22;9031;50.974;11.330;2022-07-01T11:19:17;17.40;99.90
17815;DHT22;9031;50.974;11.330;2022-07-01T11:21:53;17.00;99.90
17815;DHT22;9031;50.974;11.330;2022-07-01T11:24:22;16.90;99.90
17815;DHT22;9031;50.974;11.330;2022-07-01T11:26:48;16.90;99.90
17815;DHT22;9031;50.974;11.330;2022-07-01T11:29:15;16.80;99.90
17815;DHT22;9031;50.974;11.330;2022-07-01T11:31:48;16.80;99.90
17815;DHT22;9031;50.974;11.330;2022-07-01T11:34:16;16.60;99.90
17815;DHT22;9031;50.974;11.330;2022-07-01T11:36:43;16.40;99.90
17815;DHT22;9031;50.974;11.330;2022-07-01T11:39:27;16.50;99.90
17815;DHT22;9031;50.974;11.330;2022-07-01T11:42:05;16.80;99.90
17815;DHT22;9031;50.974;11.330;2022-07-01T11:44:42;16.90;99.90
17815;DHT22;9031;50.974;11.330;2022-07-01T11:47:11;16.90;99.90
17815;DHT22;9031;50.974;11.330;2022-07-01T11:49:47;17.10;99.90
17815;DHT22;9031;50.974;11.330;2022-07-01T11:52:14;17.30;99.90
17815;DHT22;9031;50.974;11.330;2022-07-01T11:54:44;17.50;99.90
17815;DHT22;9031;50.974;11.330;2022-07-01T11:57:12;17.60;99.90
17815;DHT22;9031;50.974;11.330;2022-07-01T11:59:38;17.50;99.90
17815;DHT22;9031;50.974;11.330;2022-07-01T12:02:05;17.30;99.90
17815;DHT22;9031;50.974;11.330;2022-07-01T12:04:31;17.30;99.90
17815;DHT22;9031;50.974;11.330;2022-07-01T12:06:58;17.00;99.90
17815;DHT22;9031;50.974;11.330;2022-07-01T12:09:24;17.00;99.90
17815;DHT22;9031;50.974;11.330;2022-07-01T12:11:51;17.00;99.90
17815;DHT22;9031;50.974;11.330;2022-07-01T12:14:23;16.90;99.90
17815;DHT22;9031;50.974;11.330;2022-07-01T12:16:57;17.00;99.90
17815;DHT22;9031;50.974;11.330;2022-07-01T12:22:05;17.20;99.90
17815;DHT22;9031;50.974;11.330;2022-07-01T12:24:32;17.30;99.90
17815;DHT22;9031;50.974;11.330;2022-07-01T12:29:27;17.20;99.90
17815;DHT22;9031;50.974;11.330;2022-07-01T12:32:05;17.10;99.90
17815;DHT22;9031;50.974;11.330;2022-07-01T12:34:42;17.10;99.90
17815;DHT22;9031;50.974;11.330;2022-07-01T12:37:10;17.20;99.90
17815;DHT22;9031;50.974;11.330;2022-07-01T12:40:19;17.20;99.90
17815;DHT22;9031;50.974;11.330;2022-07-01T12:42:45;17.30;99.90
17815;DHT22;9031;50.974;11.330;2022-07-01T12:45:13;17.40;99.90
17815;DHT22;9031;50.974;11.330;2022-07-01T12:47:42;17.50;99.90
17815;DHT22;9031;50.974;11.330;2022-07-01T12:52:35;17.60;99.90
17815;DHT22;9031;50.974;11.330;2022-07-01T12:55:03;17.30;99.90
17815;DHT22;9031;50.974;11.330;2022-07-01T12:57:37;17.40;99.90
17815;DHT22;9031;50.974;11.330;2022-07-01T13:00:03;17.20;99.90
17815;DHT22;9031;50.974;11.330;2022-07-01T13:02:29;17.40;99.90
17815;DHT22;9031;50.974;11.330;2022-07-01T13:04:54;17.60;99.90
17815;DHT22;9031;50.974;11.330;2022-07-01T13:07:20;17.50;99.90
17815;DHT22;9031;50.974;11.330;2022-07-01T13:09:45;17.30;99.90
17815;DHT22;9031;50.974;11.330;2022-07-01T13:12:11;17.40;99.90
17815;DHT22;9031;50.974;11.330;2022-07-01T13:14:36;17.30;99.90
17815;DHT22;9031;50.974;11.330;2022-07-01T13:17:02;17.30;99.90
17815;DHT22;9031;50.974;11.330;2022-07-01T13:19:27;17.30;99.90
17815;DHT22;9031;50.974;11.330;2022-07-01T13:21:53;17.30;99.90
17815;DHT22;9031;50.974;11.330;2022-07-01T13:24:18;17.40;99.90
17815;DHT22;9031;50.974;11.330;2022-07-01T13:26:46;17.50;99.90
17815;DHT22;9031;50.974;11.330;2022-07-01T13:29:11;17.40;99.90
17815;DHT22;9031;50.974;11.330;2022-07-01T13:31:37;17.40;99.90
17815;DHT22;9031;50.974;11.330;2022-07-01T13:34:02;17.40;99.90
17815;DHT22;9031;50.974;11.330;2022-07-01T13:36:28;17.50;99.90
17815;DHT22;9031;50.974;11.330;2022-07-01T13:38:53;17.40;99.90
17815;DHT22;9031;50.974;11.330;2022-07-01T13:41:19;17.50;99.90
17815;DHT22;9031;50.974;11.330;2022-07-01T13:43:46;17.50;99.90
17815;DHT22;9031;50.974;11.330;2022-07-01T13:46:12;17.50;99.90
17815;DHT22;9031;50.974;11.330;2022-07-01T13:48:37;17.60;99.90
17815;DHT22;9031;50.974;11.330;2022-07-01T13:51:03;17.80;99.90
17815;DHT22;9031;50.974;11.330;2022-07-01T13:53:28;17.90;99.90
17815;DHT22;9031;50.974;11.330;2022-07-01T13:55:54;17.80;99.90
17815;DHT22;9031;50.974;11.330;2022-07-01T13:58:19;17.70;99.90
17815;DHT22;9031;50.974;11.330;2022-07-01T14:00:45;17.70;99.90
17815;DHT22;9031;50.974;11.330;2022-07-01T14:03:10;17.80;99.90
17815;DHT22;9031;50.974;11.330;2022-07-01T14:05:37;17.70;99.90
17815;DHT22;9031;50.974;11.330;2022-07-01T14:08:03;17.70;99.90
17815;DHT22;9031;50.974;11.330;2022-07-01T14:10:29;17.80;99.90
17815;DHT22;9031;50.974;11.330;2022-07-01T14:12:55;17.80;99.90
17815;DHT22;9031;50.974;11.330;2022-07-01T14:15:20;17.90;99.90
17815;DHT22;9031;50.974;11.330;2022-07-01T14:17:46;17.70;99.90
17815;DHT22;9031;50.974;11.330;2022-07-01T14:20:12;17.60;99.90
17815;DHT22;9031;50.974;11.330;2022-07-01T14:22:38;17.90;99.90
17815;DHT22;9031;50.974;11.330;2022-07-01T14:25:04;18.00;99.90
17815;DHT22;9031;50.974;11.330;2022-07-01T14:27:29;18.20;99.90
17815;DHT22;9031;50.974;11.330;2022-07-01T14:29:55;18.10;99.90
17815;DHT22;9031;50.974;11.330;2022-07-01T14:32:20;18.10;99.90
17815;DHT22;9031;50.974;11.330;2022-07-01T14:34:53;18.10;99.90
17815;DHT22;9031;50.974;11.330;2022-07-01T14:37:19;18.00;99.90
17815;DHT22;9031;50.974;11.330;2022-07-01T14:39:45;17.80;99.90
17815;DHT22;9031;50.974;11.330;2022-07-01T14:42:11;17.60;99.90
17815;DHT22;9031;50.974;11.330;2022-07-01T14:44:36;17.40;99.90
17815;DHT22;9031;50.974;11.330;2022-07-01T14:47:02;17.30;99.90
17815;DHT22;9031;50.974;11.330;2022-07-01T14:49:30;17.50;99.90
17815;DHT22;9031;50.974;11.330;2022-07-01T14:51:56;17.70;99.90
17815;DHT22;9031;50.974;11.330;2022-07-01T14:54:21;18.10;99.90
17815;DHT22;9031;50.974;11.330;2022-07-01T14:56:47;18.20;99.90
17815;DHT22;9031;50.974;11.330;2022-07-01T14:59:12;17.90;99.90
17815;DHT22;9031;50.974;11.330;2022-07-01T15:01:39;18.00;99.90
17815;DHT22;9031;50.974;11.330;2022-07-01T15:04:05;17.90;99.90
17815;DHT22;9031;50.974;11.330;2022-07-01T15:06:30;18.10;99.90
17815;DHT22;9031;50.974;11.330;2022-07-01T15:08:56;18.10;99.90
17815;DHT22;9031;50.974;11.330;2022-07-01T15:11:21;18.10;99.90
17815;DHT22;9031;50.974;11.330;2022-07-01T15:13:47;17.70;99.90
17815;DHT22;9031;50.974;11.330;2022-07-01T15:16:12;17.70;99.90
17815;DHT22;9031;50.974;11.330;2022-07-01T15:18:38;17.80;99.90
17815;DHT22;9031;50.974;11.330;2022-07-01T15:21:03;17.80;99.90
17815;DHT22;9031;50.974;11.330;2022-07-01T15:23:29;18.00;99.90
17815;DHT22;9031;50.974;11.330;2022-07-01T15:25:55;18.10;99.90
17815;DHT22;9031;50.974;11.330;2022-07-01T15:28:21;18.60;99.90
17815;DHT22;9031;50.974;11.330;2022-07-01T15:30:47;19.30;99.90
17815;DHT22;9031;50.974;11.330;2022-07-01T15:33:13;21.00;99.90
17815;DHT22;9031;50.974;11.330;2022-07-01T15:35:38;22.20;99.90
17815;DHT22;9031;50.974;11.330;2022-07-01T15:38:04;22.70;99.90
17815;DHT22;9031;50.974;11.330;2022-07-01T15:40:31;22.80;99.90
17815;DHT22;9031;50.974;11.330;2022-07-01T15:42:56;23.10;99.90
17815;DHT22;9031;50.974;11.330;2022-07-01T15:45:23;24.20;99.90
17815;DHT22;9031;50.974;11.330;2022-07-01T15:47:49;24.90;99.90
17815;DHT22;9031;50.974;11.330;2022-07-01T15:50:36;25.30;99.90
17815;DHT22;9031;50.974;11.330;2022-07-01T15:53:02;23.90;99.90
17815;DHT22;9031;50.974;11.330;2022-07-01T15:55:27;22.60;99.90
17815;DHT22;9031;50.974;11.330;2022-07-01T15:57:53;21.40;99.90
17815;DHT22;9031;50.974;11.330;2022-07-01T16:00:20;20.60;99.90
17815;DHT22;9031;50.974;11.330;2022-07-01T16:02:46;20.20;99.90